• Join FlightAware (Why Join?)
  • Login
  • US Flag 
03:42PM EDT


 

Airport Tracker/Info


-or-


 

Live Flight TrackerFlight Track Log ✈ SKW5517 ✈ 26-Apr-2013 ✈ KDEN - KPSP

Flight Track Log - Related Links

Times and Time Zones

All times are in EDT time to prevent confusion due to time zone crossing. See the SKW5517 flight status page for this flight to view local times or setup timezone preferences in your user account.

Time Position Orientation Groundspeed Altitude Reporting Facility
EDT Latitude Longitude Course Direction KTS MPH feet Rate Location/Type
10:02PM 39.7211 -105.0869 247° West  Level FlightAware Approximate
10:03PM 39.6768 -105.2260 252° West  Level FlightAware Approximate
10:04PM 39.6337 -105.3657 247° West  Level FlightAware Approximate
10:05PM 39.5876 -105.5038 247° West  Level FlightAware Approximate
10:06PM 39.5463 -105.6277 247° West  Level FlightAware Approximate
10:07PM 39.5003 -105.7657 247° West  Level FlightAware Approximate
10:08PM 39.4660 -105.9083 251° West  Level FlightAware Approximate
10:09PM 39.4246 -106.0469 243° Southwest  Level FlightAware Approximate
10:10PM 39.3824 -106.1865 249° West  Level FlightAware Approximate
10:11PM 39.3405 -106.3263 249° West  Level FlightAware Approximate
10:12PM 39.3005 -106.4656 237° Southwest  Level FlightAware Approximate
10:13PM 39.2626 -106.6072 251° West  Level FlightAware Approximate
10:14PM 39.2191 -106.7451 237° Southwest  Level FlightAware Approximate
10:15PM 39.1433 -106.8575 231° Southwest  Level FlightAware Approximate
10:16PM 39.0717 -106.9750 232° Southwest  Level FlightAware Approximate
10:17PM 38.9994 -107.0916 228° Southwest  Level FlightAware Approximate
10:18PM 38.9224 -107.2031 228° Southwest  Level FlightAware Approximate
10:19PM 38.8493 -107.3182 237° Southwest  Level FlightAware Approximate
10:20PM 38.7795 -107.4365 228° Southwest  Level FlightAware Approximate
10:21PM 38.7020 -107.5471 228° Southwest  Level FlightAware Approximate
10:22PM 38.6294 -107.6629 231° Southwest  Level FlightAware Approximate
10:23PM 38.5570 -107.7788 231° Southwest  Level FlightAware Approximate
10:24PM 38.4828 -107.8926 230° Southwest  Level FlightAware Approximate
10:25PM 38.4076 -108.0054 230° Southwest  Level FlightAware Approximate
10:26PM 38.3327 -108.1182 230° Southwest  Level FlightAware Approximate
10:27PM 38.2581 -108.2313 230° Southwest  Level FlightAware Approximate
10:28PM 38.1833 -108.3442 230° Southwest  Level FlightAware Approximate
10:29PM 38.1085 -108.4568 230° Southwest  Level FlightAware Approximate
10:30PM 38.0335 -108.5691 230° Southwest  Level FlightAware Approximate
10:31PM 37.9584 -108.6813 230° Southwest  Level FlightAware Approximate
10:32PM 37.8832 -108.7932 230° Southwest  Level FlightAware Approximate
10:33PM 37.8080 -108.9049 230° Southwest  Level FlightAware Approximate
10:34PM 37.7446 -109.0276 238° Southwest  Level FlightAware Approximate
10:35PM 37.6823 -109.1512 237° Southwest  Level FlightAware Approximate
10:36PM 37.6198 -109.2746 237° Southwest  Level FlightAware Approximate
10:37PM 37.5571 -109.3977 237° Southwest  Level FlightAware Approximate
10:38PM 37.4943 -109.5206 237° Southwest  Level FlightAware Approximate
10:39PM 37.4314 -109.6433 237° Southwest  Level FlightAware Approximate
10:40PM 37.3683 -109.7658 237° Southwest  Level FlightAware Approximate
10:41PM 37.3051 -109.8881 237° Southwest  Level FlightAware Approximate
10:42PM 37.2418 -110.0101 237° Southwest  Level FlightAware Approximate
10:43PM 37.1784 -110.1320 237° Southwest  Level FlightAware Approximate
10:44PM 37.1148 -110.2537 237° Southwest  Level FlightAware Approximate
10:45PM 37.0512 -110.3752 237° Southwest  Level FlightAware Approximate
10:46PM 36.9874 -110.4964 237° Southwest  Level FlightAware Approximate
10:47PM 36.9234 -110.6175 237° Southwest  Level FlightAware Approximate
10:48PM 36.8594 -110.7384 237° Southwest  Level FlightAware Approximate
10:49PM 36.7952 -110.8590 236° Southwest  Level FlightAware Approximate
10:50PM 36.7305 -110.9792 236° Southwest  Level FlightAware Approximate
10:51PM 36.6659 -111.0992 236° Southwest  Level FlightAware Approximate
10:52PM 36.6015 -111.2194 236° Southwest  Level FlightAware Approximate
10:53PM 36.5369 -111.3393 236° Southwest  Level FlightAware Approximate
10:54PM 36.4722 -111.4590 236° Southwest  Level FlightAware Approximate
10:55PM 36.4059 -111.5773 235° Southwest  Level FlightAware Approximate
10:56PM 36.3388 -111.6947 235° Southwest  Level FlightAware Approximate
10:57PM 36.2729 -111.8131 236° Southwest  Level FlightAware Approximate
10:58PM 36.2076 -111.9319 236° Southwest  Level FlightAware Approximate
10:59PM 36.1422 -112.0505 236° Southwest  Level FlightAware Approximate
11:00PM 36.0766 -112.1689 236° Southwest  Level FlightAware Approximate
11:01PM 36.0109 -112.2870 236° Southwest  Level FlightAware Approximate
11:02PM 35.9451 -112.4050 235° Southwest  Level FlightAware Approximate
11:03PM 35.8792 -112.5228 235° Southwest  Level FlightAware Approximate
11:04PM 35.8132 -112.6404 235° Southwest  Level FlightAware Approximate
11:05PM 35.7471 -112.7578 235° Southwest  Level FlightAware Approximate
11:06PM 35.6808 -112.8751 235° Southwest  Level FlightAware Approximate
11:07PM 35.6131 -112.9909 234° Southwest  Level FlightAware Approximate
11:08PM 35.5449 -113.1062 234° Southwest  Level FlightAware Approximate
11:09PM 35.4766 -113.2213 234° Southwest  Level FlightAware Approximate
11:10PM 35.4082 -113.3363 234° Southwest  Level FlightAware Approximate
11:11PM 35.3424 -113.4534 236° Southwest  Level FlightAware Approximate
11:12PM 35.2769 -113.5706 236° Southwest  Level FlightAware Approximate
11:13PM 35.2113 -113.6877 236° Southwest  Level FlightAware Approximate
11:14PM 35.1456 -113.8046 236° Southwest  Level FlightAware Approximate
11:15PM 35.0797 -113.9212 235° Southwest  Level FlightAware Approximate
11:16PM 35.0138 -114.0377 235° Southwest  Level FlightAware Approximate
11:17PM 34.9476 -114.1539 233° Southwest  Level FlightAware Approximate
11:18PM 34.8773 -114.2664 233° Southwest  Level FlightAware Approximate
11:19PM 34.8064 -114.3782 234° Southwest  Level FlightAware Approximate
11:20PM 34.7378 -114.4859 232° Southwest  Level FlightAware Approximate
11:21PM 34.6668 -114.5975 232° Southwest  Level FlightAware Approximate
11:22PM 34.5932 -114.7063 229° Southwest  Level FlightAware Approximate
11:23PM 34.5240 -114.8186 239° Southwest  Level FlightAware Approximate
11:24PM 34.4508 -114.9275 230° Southwest  Level FlightAware Approximate
11:25PM 34.3755 -115.0344 229° Southwest  Level FlightAware Approximate
11:26PM 34.3032 -115.1437 239° Southwest  Level FlightAware Approximate
11:27PM 34.2370 -115.2583 229° Southwest  Level FlightAware Approximate
11:28PM 34.1612 -115.3645 229° Southwest  Level FlightAware Approximate
11:29PM 34.0860 -115.4710 231° Southwest  Level FlightAware Approximate
11:30PM 34.0133 -115.5801 231° Southwest  Level FlightAware Approximate
11:31PM 33.9365 -115.6848 228° Southwest  Level FlightAware Approximate
11:32PM 33.9000 -115.8075 270° West  Level FlightAware Approximate
11:33PM 33.9000 -115.9473 270° West  Level FlightAware Approximate
11:34PM 33.8814 -116.0838 262° West  Level FlightAware Approximate
11:35PM 33.8653 -116.2221 253° West  Level FlightAware Approximate
11:36PM 33.8431 -116.3581 259° West  Level FlightAware Approximate
11:37PM 33.8178 -116.4944 256° West  Level FlightAware Approximate
11:38PM 33.8167 -116.5000 256° West  Level FlightAware Approximate
11:39PM 33.8297 -116.5067 256° West  Level Estimated
11:40PM 33.8297 -116.5067 256° West  Level Estimated
11:41PM 33.8297 -116.5067 256° West  Level Estimated
11:42PM 33.8297 -116.5067 256° West  Level Estimated